• Join FlightAware (Why Join?)
  • Login
  • US Flag 
01:02PM EST


 

Airport Tracker/Info


-or-


 

Live Flight TrackerFlight Track Log ✈ N45N ✈ 23-Aug-2013 ✈ KNUQ - KNUQ

Flight Track Log - Related Links

Times and Time Zones

All times are in EDT time to prevent confusion due to time zone crossing. See the N45N flight status page for this flight to view local times or setup timezone preferences in your user account.

Time Position Orientation Groundspeed Altitude Reporting Facility
EDT Latitude Longitude Course Direction KTS MPH feet Rate Location/Type
01:58PM 37.4333 -122.0500 90° East 136 157 700  Level Northern Cal TRACON
01:59PM 37.4333 -122.0167 90° East 143 165 2,000 1,260 Climbing Northern Cal TRACON
02:00PM 37.4333 -121.9833 90° East 166 191 3,100 1,260 Climbing Northern Cal TRACON
02:01PM 37.3833 -121.9833 180° South 150 173 4,500 1,020 Climbing Northern Cal TRACON
02:02PM 37.3333 -122.0000 195° South 191 220 5,200 1,260 Climbing Northern Cal TRACON
02:03PM 37.3000 -121.9833 158° South 153 176 7,100 1,560 Climbing Northern Cal TRACON
02:04PM 37.2500 -121.9667 165° South 157 181 8,400 1,260 Climbing Northern Cal TRACON
02:05PM 37.2167 -121.9500 158° South 151 174 9,700 1,200 Climbing Northern Cal TRACON
02:06PM 37.1833 -121.9167 141° Southeast 151 174 10,900 1,140 Climbing Northern Cal TRACON
02:07PM 37.1500 -121.8833 141° Southeast 162 186 12,000 1,020 Climbing Northern Cal TRACON
02:08PM 37.1167 -121.8500 141° Southeast 161 185 13,000 960 Climbing Northern Cal TRACON
02:09PM 37.0625 -121.8392 171° South 156 180 14,200 780 Climbing Oakland Center
02:10PM 37.0206 -121.8581 200° South 159 183 14,800 300 Climbing Oakland Center
02:11PM 36.9714 -121.8781 198° South 162 186 14,900  Climbing Oakland Center
02:13PM 36.9000 -121.8833 183° South 163 188 14,800 -60 Descending Northern Cal TRACON
02:14PM 36.8500 -121.9000 195° South 163 188 14,800  Level Northern Cal TRACON
02:15PM 36.8000 -121.8833 165° South 164 189 14,800  Level Northern Cal TRACON
02:16PM 36.7667 -121.8833 180° South 166 191 14,800  Level Northern Cal TRACON
02:17PM 36.7167 -121.8833 180° South 176 203 14,800  Level Northern Cal TRACON
02:18PM 36.6667 -121.9000 195° South 169 194 14,800  Level Northern Cal TRACON
02:19PM 36.6500 -121.9500 247° West 156 180 14,800  Level Northern Cal TRACON
02:20PM 36.6000 -121.9333 165° South 173 199 14,800  Level Northern Cal TRACON
02:21PM 36.6000 -121.8833 90° East 175 201 14,800  Level Northern Cal TRACON
02:22PM 36.6000 -121.8333 90° East 181 208 14,800  Level Northern Cal TRACON
02:23PM 36.6000 -121.7667 90° East 188 216 14,800  Level Northern Cal TRACON
02:24PM 36.6000 -121.7000 90° East 185 213 14,800  Level Northern Cal TRACON
02:25PM 36.6000 -121.6500 90° East 175 201 14,800  Level Northern Cal TRACON
02:26PM 36.6000 -121.5833 90° East 178 205 14,800  Level Northern Cal TRACON
02:27PM 36.6500 -121.5833 360° North 165 190 14,800  Level Northern Cal TRACON
02:28PM 36.6833 -121.6000 338° Northwest 163 188 14,800  Level Northern Cal TRACON
02:29PM 36.6833 -121.6667 270° West 141 162 14,800  Level Northern Cal TRACON
02:30PM 36.6833 -121.7167 270° West 123 142 14,800  Level Northern Cal TRACON
02:31PM 36.6667 -121.7333 219° Southwest 159 183 14,800  Level Northern Cal TRACON
02:32PM 36.6833 -121.8333 282° West 123 142 14,800  Level Northern Cal TRACON
02:33PM 36.6833 -121.8833 270° West 140 161 14,800  Level Northern Cal TRACON
02:34PM 36.6833 -121.9333 270° West 149 171 14,800 -60 Level Northern Cal TRACON
02:35PM 36.6667 -121.9667 238° Southwest 177 204 14,700 -60 Descending Northern Cal TRACON
02:36PM 36.6500 -121.9167 113° Southeast 176 203 14,700  Level Northern Cal TRACON
02:37PM 36.6500 -121.8667 90° East 178 205 14,700  Level Northern Cal TRACON
02:38PM 36.6333 -121.8000 107° East 190 219 14,700  Level Northern Cal TRACON
02:39PM 36.6500 -121.7333 73° East 224 258 14,700  Level Northern Cal TRACON
02:40PM 36.6500 -121.6833 90° East 182 209 14,700 -60 Level Northern Cal TRACON
02:41PM 36.6333 -121.6333 113° Southeast 170 196 14,600  Descending Northern Cal TRACON
02:42PM 36.6000 -121.5833 130° Southeast 167 192 14,700  Climbing Northern Cal TRACON
02:43PM 36.5667 -121.5333 130° Southeast 170 196 14,700  Level Northern Cal TRACON
02:44PM 36.5333 -121.5000 141° Southeast 171 197 14,700  Level Northern Cal TRACON
02:45PM 36.5000 -121.4500 130° Southeast 171 197 14,700  Level Northern Cal TRACON
02:46PM 36.4667 -121.4000 130° Southeast 172 198 14,700 -60 Level Northern Cal TRACON
02:47PM 36.4333 -121.3667 141° Southeast 172 198 14,600  Descending Northern Cal TRACON
02:48PM 36.4000 -121.3167 130° Southeast 171 197 14,700  Climbing Northern Cal TRACON
02:49PM 36.3667 -121.2667 130° Southeast 173 199 14,700  Level Northern Cal TRACON
02:50PM 36.3333 -121.2167 130° Southeast 175 201 14,700  Level Northern Cal TRACON
02:51PM 36.3500 -121.1833 58° Northeast 179 206 14,700  Level Northern Cal TRACON
02:52PM 36.4000 -121.2167 332° Northwest 156 180 14,700  Level Northern Cal TRACON
02:53PM 36.4167 -121.2500 302° West 159 183 14,700  Level Northern Cal TRACON
02:54PM 36.4500 -121.3000 310° West 160 184 14,700  Level Northern Cal TRACON
02:55PM 36.4833 -121.3333 321° Northwest 160 184 14,700  Level Northern Cal TRACON
02:56PM 36.5167 -121.3833 310° West 161 185 14,700  Level Northern Cal TRACON
02:57PM 36.5500 -121.4167 321° Northwest 160 184 14,700  Level Northern Cal TRACON
02:58PM 36.5833 -121.4667 310° West 161 185 14,700  Level Northern Cal TRACON
02:59PM 36.6167 -121.5000 321° Northwest 160 184 14,700 -120 Level Northern Cal TRACON
03:00PM 36.6500 -121.5333 321° Northwest 169 194 14,500 -120 Descending Northern Cal TRACON
03:01PM 36.6833 -121.5667 321° Northwest 165 190 14,500  Level Northern Cal TRACON
03:02PM 36.6833 -121.6167 270° West 168 193 14,500  Level Northern Cal TRACON
03:03PM 36.6500 -121.6667 230° Southwest 179 206 14,500  Level Northern Cal TRACON
03:04PM 36.6000 -121.6500 165° South 172 198 14,500  Level Northern Cal TRACON
03:05PM 36.5667 -121.6167 141° Southeast 169 194 14,500  Level Northern Cal TRACON
03:06PM 36.5333 -121.5667 130° Southeast 171 197 14,500  Level Northern Cal TRACON
03:07PM 36.5000 -121.5167 130° Southeast 172 198 14,500  Level Northern Cal TRACON
03:08PM 36.4667 -121.4833 141° Southeast 173 199 14,500  Level Northern Cal TRACON
03:09PM 36.4333 -121.4333 130° Southeast 175 201 14,500  Level Northern Cal TRACON
03:10PM 36.4000 -121.3833 130° Southeast 173 199 14,500  Level Northern Cal TRACON
03:11PM 36.3667 -121.3500 141° Southeast 173 199 14,500  Level Northern Cal TRACON
03:12PM 36.3333 -121.3000 130° Southeast 173 199 14,500  Level Northern Cal TRACON
03:13PM 36.3167 -121.2500 112° Southeast 188 216 14,500  Level Northern Cal TRACON
03:14PM 36.3667 -121.2000 39° Northeast 173 199 14,500  Level Northern Cal TRACON
03:15PM 36.4000 -121.1667 39° Northeast 175 201 14,500  Level Northern Cal TRACON
03:16PM 36.4500 -121.1500 15° North 171 197 14,500  Level Northern Cal TRACON
03:17PM 36.4833 -121.1500 360° North 170 196 14,500  Level Northern Cal TRACON
03:18PM 36.5167 -121.1833 321° Northwest 163 188 14,500  Level Northern Cal TRACON
03:19PM 36.5667 -121.2167 332° Northwest 161 185 14,500  Level Northern Cal TRACON
03:20PM 36.5833 -121.2500 302° West 162 186 14,500  Level Northern Cal TRACON
03:21PM 36.5500 -121.3000 230° Southwest 162 186 14,500  Level Northern Cal TRACON
03:22PM 36.5167 -121.3333 219° Southwest 163 188 14,500  Level Northern Cal TRACON
03:23PM 36.4833 -121.3833 230° Southwest 165 190 14,500  Level Northern Cal TRACON
03:24PM 36.4500 -121.4167 219° Southwest 166 191 14,500  Level Northern Cal TRACON
03:25PM 36.4167 -121.4500 219° Southwest 164 189 14,500  Level Northern Cal TRACON
03:26PM 36.3833 -121.4833 219° Southwest 166 191 14,500  Level Northern Cal TRACON
03:27PM 36.3833 -121.5333 270° West 163 188 14,500  Level Northern Cal TRACON
03:28PM 36.4167 -121.5833 310° West 166 191 14,500  Level Northern Cal TRACON
03:29PM 36.4500 -121.5500 39° Northeast 179 206 14,500  Level Northern Cal TRACON
03:30PM 36.4833 -121.5000 50° Northeast 176 203 14,500  Level Northern Cal TRACON
03:31PM 36.5167 -121.4667 39° Northeast 177 204 14,500  Level Northern Cal TRACON
03:32PM 36.5500 -121.4167 50° Northeast 177 204 14,500  Level Northern Cal TRACON
03:33PM 36.5833 -121.3833 39° Northeast 179 206 14,500  Level Northern Cal TRACON
03:34PM 36.6000 -121.3333 67° East 184 212 14,500  Level Northern Cal TRACON
03:35PM 36.5667 -121.2833 130° Southeast 174 200 14,500  Level Northern Cal TRACON
03:36PM 36.5333 -121.3167 219° Southwest 166 191 14,500  Level Northern Cal TRACON
03:37PM 36.5000 -121.3500 219° Southwest 162 186 14,500  Level Northern Cal TRACON
03:38PM 36.4667 -121.4000 230° Southwest 164 189 14,500  Level Northern Cal TRACON
03:39PM 36.4333 -121.4333 219° Southwest 163 188 14,500  Level Northern Cal TRACON
03:40PM 36.4000 -121.4667 219° Southwest 163 188 14,500  Level Northern Cal TRACON
03:41PM 36.4000 -121.5167 270° West 172 198 14,500  Level Northern Cal TRACON
03:42PM 36.4500 -121.5167 360° North 167 192 14,500  Level Northern Cal TRACON
03:43PM 36.4833 -121.5167 360° North 168 193 14,500  Level Northern Cal TRACON
03:44PM 36.5333 -121.5167 360° North 169 194 14,500  Level Northern Cal TRACON
03:45PM 36.5833 -121.5167 360° North 169 194 14,500  Level Northern Cal TRACON
03:46PM 36.6333 -121.5167 360° North 169 194 14,500  Level Northern Cal TRACON
03:47PM 36.6667 -121.5500 321° Northwest 162 186 14,500  Level Northern Cal TRACON
03:48PM 36.7000 -121.5833 321° Northwest 169 194 14,500  Level Northern Cal TRACON
03:49PM 36.7333 -121.6167 321° Northwest 174 200 14,500 -240 Level Northern Cal TRACON
03:50PM 36.7833 -121.6333 345° North 180 207 14,100 -600 Descending Northern Cal TRACON
03:51PM 36.8167 -121.6667 321° Northwest 171 197 13,400 -780 Descending Northern Cal TRACON
03:52PM 36.8667 -121.6833 345° North 165 190 12,700 -840 Descending Northern Cal TRACON
03:53PM 36.9000 -121.7167 321° Northwest 164 189 11,900 -840 Descending Northern Cal TRACON
03:54PM 36.9333 -121.7500 321° Northwest 162 186 11,100 -840 Descending Northern Cal TRACON
03:55PM 36.9833 -121.7833 332° Northwest 163 188 10,300 -960 Descending Northern Cal TRACON
03:56PM 37.0167 -121.8000 338° Northwest 165 190 9,200 -960 Descending Northern Cal TRACON
03:57PM 37.0500 -121.8333 321° Northwest 148 170 8,400 -960 Descending Northern Cal TRACON
03:58PM 37.0833 -121.8667 321° Northwest 141 162 7,300 -1,080 Descending Northern Cal TRACON
03:59PM 37.1167 -121.8833 338° Northwest 142 163 6,300 -1,020 Descending Northern Cal TRACON
04:00PM 37.1500 -121.9167 321° Northwest 152 175 5,300 -900 Descending Northern Cal TRACON
04:01PM 37.2000 -121.9333 345° North 143 165 4,600 -780 Descending Northern Cal TRACON
04:02PM 37.2333 -121.9500 338° Northwest 140 161 3,800 -780 Descending Northern Cal TRACON
04:03PM 37.2667 -121.9667 338° Northwest 139 160 3,100 -720 Descending Northern Cal TRACON
04:04PM 37.3000 -121.9833 338° Northwest 136 157 2,400 -720 Descending Northern Cal TRACON
04:05PM 37.3333 -122.0000 338° Northwest 132 152 1,700 -660 Descending Northern Cal TRACON
04:06PM 37.3667 -122.0167 338° Northwest 121 139 1,100 -600 Descending Northern Cal TRACON
04:08PM 37.4161 -122.0491 152° Southeast  Level Estimated